Terminal Aerodrome Forecast
Issued by NWS

Home | Current Version | Previous Version | Text Only | Print | Product List | Glossary On
Versions: 1 2 3 4 5 6 7 8 9 10 11 12 13
000
FTUS46 KSEW 281120
TAFOLM
TAF
KOLM 281120Z 2812/2912 21006KT P6SM -RA SCT030 OVC060
      TEMPO 2814/2818 5SM -RA BR BKN030 OVC060
     FM282100 22008KT P6SM SCT035 BKN060
     FM290100 00000KT P6SM SCT060 BKN100=

USA.gov is the U.S. government's official web portal to all federal, state and local government web resources and services.